sensor_id;sensor_type;location;lat;lon;timestamp;P1;durP1;ratioP1;P2;durP2;ratioP2
7359;SDS011;3720;48.274;7.796;2022-09-21T00:00:00;42.60;;;14.43;;
7359;SDS011;3720;48.274;7.796;2022-09-21T00:02:33;14.18;;;4.80;;
7359;SDS011;3720;48.274;7.796;2022-09-21T00:05:07;3.92;;;2.17;;
7359;SDS011;3720;48.274;7.796;2022-09-21T00:07:40;2.58;;;1.80;;
7359;SDS011;3720;48.274;7.796;2022-09-21T00:10:11;3.55;;;2.00;;
7359;SDS011;3720;48.274;7.796;2022-09-21T00:12:44;5.40;;;2.20;;
7359;SDS011;3720;48.274;7.796;2022-09-21T00:15:17;3.17;;;1.90;;
7359;SDS011;3720;48.274;7.796;2022-09-21T00:17:51;4.75;;;2.20;;
7359;SDS011;3720;48.274;7.796;2022-09-21T00:20:25;7.32;;;2.95;;
7359;SDS011;3720;48.274;7.796;2022-09-21T00:22:58;7.68;;;3.60;;
7359;SDS011;3720;48.274;7.796;2022-09-21T00:25:30;4.38;;;2.35;;
7359;SDS011;3720;48.274;7.796;2022-09-21T00:28:02;7.07;;;2.30;;
7359;SDS011;3720;48.274;7.796;2022-09-21T00:30:34;3.85;;;2.50;;
7359;SDS011;3720;48.274;7.796;2022-09-21T00:33:05;4.28;;;2.30;;
7359;SDS011;3720;48.274;7.796;2022-09-21T00:35:39;5.05;;;2.50;;
7359;SDS011;3720;48.274;7.796;2022-09-21T00:38:11;5.30;;;2.65;;
7359;SDS011;3720;48.274;7.796;2022-09-21T00:40:43;6.00;;;2.97;;
7359;SDS011;3720;48.274;7.796;2022-09-21T00:43:15;6.03;;;2.67;;
7359;SDS011;3720;48.274;7.796;2022-09-21T00:45:48;5.93;;;2.72;;
7359;SDS011;3720;48.274;7.796;2022-09-21T00:48:24;4.47;;;2.35;;
7359;SDS011;3720;48.274;7.796;2022-09-21T00:51:00;4.45;;;1.90;;
7359;SDS011;3720;48.274;7.796;2022-09-21T00:53:36;3.28;;;1.83;;
7359;SDS011;3720;48.274;7.796;2022-09-21T00:56:09;2.88;;;1.70;;
7359;SDS011;3720;48.274;7.796;2022-09-21T00:58:43;2.00;;;1.70;;
7359;SDS011;3720;48.274;7.796;2022-09-21T01:01:19;4.22;;;2.08;;
7359;SDS011;3720;48.274;7.796;2022-09-21T01:03:51;3.70;;;2.08;;
7359;SDS011;3720;48.274;7.796;2022-09-21T01:06:27;6.75;;;2.20;;
7359;SDS011;3720;48.274;7.796;2022-09-21T01:08:59;2.58;;;1.85;;
7359;SDS011;3720;48.274;7.796;2022-09-21T01:11:32;6.28;;;2.60;;
7359;SDS011;3720;48.274;7.796;2022-09-21T01:17:32;6.65;;;3.30;;
7359;SDS011;3720;48.274;7.796;2022-09-21T01:20:26;5.72;;;3.00;;
7359;SDS011;3720;48.274;7.796;2022-09-21T01:23:36;5.88;;;2.85;;
7359;SDS011;3720;48.274;7.796;2022-09-21T01:26:30;7.97;;;2.95;;
7359;SDS011;3720;48.274;7.796;2022-09-21T01:29:18;5.40;;;2.95;;
7359;SDS011;3720;48.274;7.796;2022-09-21T01:31:57;3.92;;;2.65;;
7359;SDS011;3720;48.274;7.796;2022-09-21T01:34:35;3.10;;;2.28;;
7359;SDS011;3720;48.274;7.796;2022-09-21T01:37:13;4.03;;;2.70;;
7359;SDS011;3720;48.274;7.796;2022-09-21T01:39:53;5.53;;;2.85;;
7359;SDS011;3720;48.274;7.796;2022-09-21T01:42:29;6.65;;;3.00;;
7359;SDS011;3720;48.274;7.796;2022-09-21T01:45:06;7.15;;;2.80;;
7359;SDS011;3720;48.274;7.796;2022-09-21T01:47:41;7.57;;;3.13;;
7359;SDS011;3720;48.274;7.796;2022-09-21T01:50:16;7.20;;;2.88;;
7359;SDS011;3720;48.274;7.796;2022-09-21T01:52:51;5.78;;;3.10;;
7359;SDS011;3720;48.274;7.796;2022-09-21T01:55:29;6.15;;;2.80;;
7359;SDS011;3720;48.274;7.796;2022-09-21T01:58:06;6.03;;;2.78;;
7359;SDS011;3720;48.274;7.796;2022-09-21T02:00:45;5.80;;;3.00;;
7359;SDS011;3720;48.274;7.796;2022-09-21T02:03:20;4.85;;;2.80;;
7359;SDS011;3720;48.274;7.796;2022-09-21T02:05:58;4.07;;;2.80;;
7359;SDS011;3720;48.274;7.796;2022-09-21T02:08:31;4.38;;;2.72;;
7359;SDS011;3720;48.274;7.796;2022-09-21T02:11:04;5.43;;;3.13;;
7359;SDS011;3720;48.274;7.796;2022-09-21T02:13:38;5.97;;;2.50;;
7359;SDS011;3720;48.274;7.796;2022-09-21T02:16:25;5.05;;;2.70;;
7359;SDS011;3720;48.274;7.796;2022-09-21T02:21:46;3.55;;;2.05;;
7359;SDS011;3720;48.274;7.796;2022-09-21T02:24:29;5.15;;;2.55;;
7359;SDS011;3720;48.274;7.796;2022-09-21T02:27:11;4.05;;;2.50;;
7359;SDS011;3720;48.274;7.796;2022-09-21T02:29:50;5.28;;;2.70;;
7359;SDS011;3720;48.274;7.796;2022-09-21T02:32:27;3.83;;;2.55;;
7359;SDS011;3720;48.274;7.796;2022-09-21T02:35:08;7.70;;;2.58;;
7359;SDS011;3720;48.274;7.796;2022-09-21T02:37:49;3.20;;;2.50;;
7359;SDS011;3720;48.274;7.796;2022-09-21T02:40:27;4.03;;;2.65;;
7359;SDS011;3720;48.274;7.796;2022-09-21T02:43:02;5.93;;;3.10;;
7359;SDS011;3720;48.274;7.796;2022-09-21T02:45:40;5.40;;;2.95;;
7359;SDS011;3720;48.274;7.796;2022-09-21T02:48:17;7.75;;;3.08;;
7359;SDS011;3720;48.274;7.796;2022-09-21T02:50:52;7.68;;;3.00;;
7359;SDS011;3720;48.274;7.796;2022-09-21T02:53:29;6.47;;;3.17;;
7359;SDS011;3720;48.274;7.796;2022-09-21T02:56:08;6.68;;;3.00;;
7359;SDS011;3720;48.274;7.796;2022-09-21T02:58:41;6.65;;;3.10;;
7359;SDS011;3720;48.274;7.796;2022-09-21T03:01:17;5.22;;;3.20;;
7359;SDS011;3720;48.274;7.796;2022-09-21T03:03:51;5.95;;;3.50;;
7359;SDS011;3720;48.274;7.796;2022-09-21T03:06:23;5.55;;;3.50;;
7359;SDS011;3720;48.274;7.796;2022-09-21T03:08:55;4.93;;;3.47;;
7359;SDS011;3720;48.274;7.796;2022-09-21T03:11:27;5.13;;;3.08;;
7359;SDS011;3720;48.274;7.796;2022-09-21T03:14:00;4.78;;;2.80;;
7359;SDS011;3720;48.274;7.796;2022-09-21T03:16:34;7.18;;;3.45;;
7359;SDS011;3720;48.274;7.796;2022-09-21T03:19:08;4.97;;;3.20;;
7359;SDS011;3720;48.274;7.796;2022-09-21T03:21:41;5.63;;;2.92;;
7359;SDS011;3720;48.274;7.796;2022-09-21T03:24:13;5.13;;;3.20;;
7359;SDS011;3720;48.274;7.796;2022-09-21T03:27:05;6.05;;;2.95;;
7359;SDS011;3720;48.274;7.796;2022-09-21T03:29:38;5.38;;;3.38;;
7359;SDS011;3720;48.274;7.796;2022-09-21T03:32:10;4.93;;;3.22;;
7359;SDS011;3720;48.274;7.796;2022-09-21T03:34:44;6.05;;;3.60;;
7359;SDS011;3720;48.274;7.796;2022-09-21T03:37:16;6.47;;;4.22;;
7359;SDS011;3720;48.274;7.796;2022-09-21T03:39:48;8.73;;;4.00;;
7359;SDS011;3720;48.274;7.796;2022-09-21T03:42:20;6.25;;;3.80;;
7359;SDS011;3720;48.274;7.796;2022-09-21T03:44:51;6.43;;;4.03;;
7359;SDS011;3720;48.274;7.796;2022-09-21T03:47:23;6.45;;;3.80;;
7359;SDS011;3720;48.274;7.796;2022-09-21T03:49:57;5.10;;;3.20;;
7359;SDS011;3720;48.274;7.796;2022-09-21T03:52:29;5.68;;;3.30;;
7359;SDS011;3720;48.274;7.796;2022-09-21T03:55:01;9.70;;;4.18;;
7359;SDS011;3720;48.274;7.796;2022-09-21T03:57:35;8.25;;;4.05;;
7359;SDS011;3720;48.274;7.796;2022-09-21T04:00:08;6.93;;;3.60;;
7359;SDS011;3720;48.274;7.796;2022-09-21T04:02:41;5.70;;;3.60;;
7359;SDS011;3720;48.274;7.796;2022-09-21T04:05:15;5.07;;;3.40;;
7359;SDS011;3720;48.274;7.796;2022-09-21T04:07:48;6.93;;;4.10;;
7359;SDS011;3720;48.274;7.796;2022-09-21T04:10:21;7.93;;;3.97;;
7359;SDS011;3720;48.274;7.796;2022-09-21T04:12:58;7.25;;;4.55;;
7359;SDS011;3720;48.274;7.796;2022-09-21T04:15:32;6.68;;;4.22;;
7359;SDS011;3720;48.274;7.796;2022-09-21T04:18:05;7.22;;;3.70;;
7359;SDS011;3720;48.274;7.796;2022-09-21T04:20:38;7.68;;;4.03;;
7359;SDS011;3720;48.274;7.796;2022-09-21T04:23:11;7.50;;;3.88;;
7359;SDS011;3720;48.274;7.796;2022-09-21T04:25:42;7.63;;;3.58;;
7359;SDS011;3720;48.274;7.796;2022-09-21T04:28:15;4.97;;;3.47;;
7359;SDS011;3720;48.274;7.796;2022-09-21T04:30:51;7.03;;;3.97;;
7359;SDS011;3720;48.274;7.796;2022-09-21T04:33:24;5.57;;;3.88;;
7359;SDS011;3720;48.274;7.796;2022-09-21T04:35:58;6.00;;;3.67;;
7359;SDS011;3720;48.274;7.796;2022-09-21T04:38:29;6.72;;;3.65;;
7359;SDS011;3720;48.274;7.796;2022-09-21T04:41:01;7.57;;;4.13;;
7359;SDS011;3720;48.274;7.796;2022-09-21T04:43:33;5.47;;;4.00;;
7359;SDS011;3720;48.274;7.796;2022-09-21T04:46:05;7.82;;;4.80;;
7359;SDS011;3720;48.274;7.796;2022-09-21T04:48:38;8.43;;;4.63;;
7359;SDS011;3720;48.274;7.796;2022-09-21T04:51:13;9.05;;;6.22;;
7359;SDS011;3720;48.274;7.796;2022-09-21T04:53:46;12.70;;;7.45;;
7359;SDS011;3720;48.274;7.796;2022-09-21T04:56:18;13.07;;;7.85;;
7359;SDS011;3720;48.274;7.796;2022-09-21T04:58:50;9.55;;;6.93;;
7359;SDS011;3720;48.274;7.796;2022-09-21T05:01:22;13.32;;;6.00;;
7359;SDS011;3720;48.274;7.796;2022-09-21T05:03:54;7.10;;;4.53;;
7359;SDS011;3720;48.274;7.796;2022-09-21T05:06:29;7.82;;;4.22;;
7359;SDS011;3720;48.274;7.796;2022-09-21T05:09:02;8.57;;;4.20;;
7359;SDS011;3720;48.274;7.796;2022-09-21T05:11:51;10.07;;;4.97;;
7359;SDS011;3720;48.274;7.796;2022-09-21T05:14:23;11.82;;;5.70;;
7359;SDS011;3720;48.274;7.796;2022-09-21T05:16:55;12.65;;;5.90;;
7359;SDS011;3720;48.274;7.796;2022-09-21T05:19:27;11.55;;;5.55;;
7359;SDS011;3720;48.274;7.796;2022-09-21T05:22:00;9.55;;;5.00;;
7359;SDS011;3720;48.274;7.796;2022-09-21T05:24:32;8.95;;;5.20;;
7359;SDS011;3720;48.274;7.796;2022-09-21T05:27:04;8.70;;;5.10;;
7359;SDS011;3720;48.274;7.796;2022-09-21T05:29:36;8.63;;;4.90;;
7359;SDS011;3720;48.274;7.796;2022-09-21T05:32:11;9.20;;;4.65;;
7359;SDS011;3720;48.274;7.796;2022-09-21T05:34:51;12.48;;;4.40;;
7359;SDS011;3720;48.274;7.796;2022-09-21T05:37:37;10.45;;;4.70;;
7359;SDS011;3720;48.274;7.796;2022-09-21T05:40:19;7.18;;;4.22;;
7359;SDS011;3720;48.274;7.796;2022-09-21T05:42:51;9.63;;;4.40;;
7359;SDS011;3720;48.274;7.796;2022-09-21T05:45:25;8.40;;;4.70;;
7359;SDS011;3720;48.274;7.796;2022-09-21T05:48:03;8.73;;;5.00;;
7359;SDS011;3720;48.274;7.796;2022-09-21T05:50:47;8.98;;;4.75;;
7359;SDS011;3720;48.274;7.796;2022-09-21T05:53:35;6.80;;;4.40;;
7359;SDS011;3720;48.274;7.796;2022-09-21T05:56:20;8.05;;;4.72;;
7359;SDS011;3720;48.274;7.796;2022-09-21T05:59:02;7.47;;;4.68;;
7359;SDS011;3720;48.274;7.796;2022-09-21T06:01:49;10.75;;;4.53;;
7359;SDS011;3720;48.274;7.796;2022-09-21T06:04:29;7.07;;;4.10;;
7359;SDS011;3720;48.274;7.796;2022-09-21T06:07:02;9.48;;;4.40;;
7359;SDS011;3720;48.274;7.796;2022-09-21T06:09:35;6.85;;;4.45;;
7359;SDS011;3720;48.274;7.796;2022-09-21T06:12:07;7.32;;;4.40;;
7359;SDS011;3720;48.274;7.796;2022-09-21T06:14:41;7.75;;;4.35;;
7359;SDS011;3720;48.274;7.796;2022-09-21T06:17:13;6.80;;;4.40;;
7359;SDS011;3720;48.274;7.796;2022-09-21T06:19:45;9.45;;;4.50;;
7359;SDS011;3720;48.274;7.796;2022-09-21T06:22:17;8.65;;;4.60;;
7359;SDS011;3720;48.274;7.796;2022-09-21T06:24:50;9.10;;;4.55;;
7359;SDS011;3720;48.274;7.796;2022-09-21T06:27:22;8.63;;;4.82;;
7359;SDS011;3720;48.274;7.796;2022-09-21T06:29:54;10.85;;;5.05;;
7359;SDS011;3720;48.274;7.796;2022-09-21T06:32:26;9.48;;;4.82;;
7359;SDS011;3720;48.274;7.796;2022-09-21T06:34:58;9.40;;;5.20;;
7359;SDS011;3720;48.274;7.796;2022-09-21T06:37:30;11.43;;;5.40;;
7359;SDS011;3720;48.274;7.796;2022-09-21T06:40:04;15.57;;;5.45;;
7359;SDS011;3720;48.274;7.796;2022-09-21T06:42:37;9.13;;;5.60;;
7359;SDS011;3720;48.274;7.796;2022-09-21T06:45:09;13.82;;;5.80;;
7359;SDS011;3720;48.274;7.796;2022-09-21T06:47:45;9.25;;;5.45;;
7359;SDS011;3720;48.274;7.796;2022-09-21T06:50:17;9.48;;;5.10;;
7359;SDS011;3720;48.274;7.796;2022-09-21T06:52:49;11.00;;;5.53;;
7359;SDS011;3720;48.274;7.796;2022-09-21T06:55:22;7.50;;;5.18;;
7359;SDS011;3720;48.274;7.796;2022-09-21T06:57:58;12.75;;;4.93;;
7359;SDS011;3720;48.274;7.796;2022-09-21T07:00:31;14.30;;;5.55;;
7359;SDS011;3720;48.274;7.796;2022-09-21T07:03:11;10.80;;;5.05;;
7359;SDS011;3720;48.274;7.796;2022-09-21T07:05:43;8.93;;;5.50;;
7359;SDS011;3720;48.274;7.796;2022-09-21T07:08:15;9.98;;;5.25;;
7359;SDS011;3720;48.274;7.796;2022-09-21T07:10:51;10.00;;;5.28;;
7359;SDS011;3720;48.274;7.796;2022-09-21T07:13:23;11.32;;;5.40;;
7359;SDS011;3720;48.274;7.796;2022-09-21T07:15:55;12.20;;;5.15;;
7359;SDS011;3720;48.274;7.796;2022-09-21T07:18:30;10.57;;;5.07;;
7359;SDS011;3720;48.274;7.796;2022-09-21T07:21:03;9.85;;;5.50;;
7359;SDS011;3720;48.274;7.796;2022-09-21T07:23:35;8.80;;;5.47;;
7359;SDS011;3720;48.274;7.796;2022-09-21T07:26:10;8.80;;;5.43;;
7359;SDS011;3720;48.274;7.796;2022-09-21T07:28:42;10.10;;;5.18;;
7359;SDS011;3720;48.274;7.796;2022-09-21T07:31:15;9.35;;;5.40;;
7359;SDS011;3720;48.274;7.796;2022-09-21T07:33:47;8.68;;;5.25;;
7359;SDS011;3720;48.274;7.796;2022-09-21T07:36:19;11.50;;;5.43;;
7359;SDS011;3720;48.274;7.796;2022-09-21T07:38:53;6.95;;;4.70;;
7359;SDS011;3720;48.274;7.796;2022-09-21T07:41:26;9.75;;;5.15;;
7359;SDS011;3720;48.274;7.796;2022-09-21T07:44:01;9.90;;;5.20;;
7359;SDS011;3720;48.274;7.796;2022-09-21T07:46:33;8.02;;;4.70;;
7359;SDS011;3720;48.274;7.796;2022-09-21T07:49:06;8.25;;;4.75;;
7359;SDS011;3720;48.274;7.796;2022-09-21T07:51:38;8.88;;;5.13;;
7359;SDS011;3720;48.274;7.796;2022-09-21T07:54:12;10.43;;;5.47;;
7359;SDS011;3720;48.274;7.796;2022-09-21T07:56:46;10.23;;;5.35;;
7359;SDS011;3720;48.274;7.796;2022-09-21T07:59:38;9.20;;;4.93;;
7359;SDS011;3720;48.274;7.796;2022-09-21T08:02:09;11.48;;;5.25;;
7359;SDS011;3720;48.274;7.796;2022-09-21T08:04:42;7.95;;;5.10;;
7359;SDS011;3720;48.274;7.796;2022-09-21T08:07:13;10.20;;;5.07;;
7359;SDS011;3720;48.274;7.796;2022-09-21T08:09:46;7.95;;;4.80;;
7359;SDS011;3720;48.274;7.796;2022-09-21T08:12:21;5.85;;;4.07;;
7359;SDS011;3720;48.274;7.796;2022-09-21T08:14:53;9.40;;;4.72;;
7359;SDS011;3720;48.274;7.796;2022-09-21T08:17:24;7.70;;;4.47;;
7359;SDS011;3720;48.274;7.796;2022-09-21T08:19:56;7.25;;;4.70;;
7359;SDS011;3720;48.274;7.796;2022-09-21T08:22:31;6.90;;;4.50;;
7359;SDS011;3720;48.274;7.796;2022-09-21T08:25:03;9.85;;;4.53;;
7359;SDS011;3720;48.274;7.796;2022-09-21T08:27:37;7.38;;;4.20;;
7359;SDS011;3720;48.274;7.796;2022-09-21T08:30:09;6.95;;;3.67;;
7359;SDS011;3720;48.274;7.796;2022-09-21T08:32:43;7.65;;;3.58;;
7359;SDS011;3720;48.274;7.796;2022-09-21T08:35:15;5.60;;;3.33;;
7359;SDS011;3720;48.274;7.796;2022-09-21T08:37:48;7.93;;;3.70;;
7359;SDS011;3720;48.274;7.796;2022-09-21T08:40:23;9.05;;;3.97;;
7359;SDS011;3720;48.274;7.796;2022-09-21T08:42:57;5.57;;;3.17;;
7359;SDS011;3720;48.274;7.796;2022-09-21T08:45:32;4.63;;;3.13;;
7359;SDS011;3720;48.274;7.796;2022-09-21T08:48:09;8.25;;;3.60;;
7359;SDS011;3720;48.274;7.796;2022-09-21T08:50:48;8.57;;;3.92;;
7359;SDS011;3720;48.274;7.796;2022-09-21T08:53:24;8.02;;;3.58;;
7359;SDS011;3720;48.274;7.796;2022-09-21T08:56:01;6.15;;;3.40;;
7359;SDS011;3720;48.274;7.796;2022-09-21T08:58:36;7.50;;;3.50;;
7359;SDS011;3720;48.274;7.796;2022-09-21T09:07:14;7.25;;;3.40;;
7359;SDS011;3720;48.274;7.796;2022-09-21T09:10:05;7.43;;;3.50;;
7359;SDS011;3720;48.274;7.796;2022-09-21T09:12:53;7.90;;;3.53;;
7359;SDS011;3720;48.274;7.796;2022-09-21T09:15:36;6.97;;;3.60;;
7359;SDS011;3720;48.274;7.796;2022-09-21T09:18:20;4.97;;;3.22;;
7359;SDS011;3720;48.274;7.796;2022-09-21T09:20:59;5.70;;;3.58;;
7359;SDS011;3720;48.274;7.796;2022-09-21T09:23:36;5.63;;;3.30;;
7359;SDS011;3720;48.274;7.796;2022-09-21T09:26:14;7.43;;;4.10;;
7359;SDS011;3720;48.274;7.796;2022-09-21T09:28:53;9.13;;;4.40;;
7359;SDS011;3720;48.274;7.796;2022-09-21T09:31:30;7.63;;;3.70;;
7359;SDS011;3720;48.274;7.796;2022-09-21T09:34:07;5.75;;;3.30;;
7359;SDS011;3720;48.274;7.796;2022-09-21T09:36:42;7.95;;;3.67;;
7359;SDS011;3720;48.274;7.796;2022-09-21T09:39:17;6.75;;;3.30;;
7359;SDS011;3720;48.274;7.796;2022-09-21T09:47:52;8.13;;;3.30;;
7359;SDS011;3720;48.274;7.796;2022-09-21T09:50:36;5.93;;;3.00;;
7359;SDS011;3720;48.274;7.796;2022-09-21T09:53:10;7.90;;;2.53;;
7359;SDS011;3720;48.274;7.796;2022-09-21T09:55:45;6.63;;;2.67;;
7359;SDS011;3720;48.274;7.796;2022-09-21T09:58:20;5.47;;;2.45;;
7359;SDS011;3720;48.274;7.796;2022-09-21T10:00:54;5.75;;;2.70;;
7359;SDS011;3720;48.274;7.796;2022-09-21T10:03:28;5.38;;;2.67;;
7359;SDS011;3720;48.274;7.796;2022-09-21T10:05:59;7.05;;;2.65;;
7359;SDS011;3720;48.274;7.796;2022-09-21T10:08:39;5.35;;;2.55;;
7359;SDS011;3720;48.274;7.796;2022-09-21T10:11:14;5.10;;;2.30;;
7359;SDS011;3720;48.274;7.796;2022-09-21T10:13:46;6.88;;;2.65;;
7359;SDS011;3720;48.274;7.796;2022-09-21T10:16:20;4.40;;;2.10;;
7359;SDS011;3720;48.274;7.796;2022-09-21T10:18:55;5.63;;;2.08;;
7359;SDS011;3720;48.274;7.796;2022-09-21T10:21:32;6.90;;;2.30;;
7359;SDS011;3720;48.274;7.796;2022-09-21T10:24:06;3.92;;;1.80;;
7359;SDS011;3720;48.274;7.796;2022-09-21T10:26:50;3.25;;;1.77;;
7359;SDS011;3720;48.274;7.796;2022-09-21T10:29:30;6.78;;;1.98;;
7359;SDS011;3720;48.274;7.796;2022-09-21T10:35:01;3.75;;;1.85;;
7359;SDS011;3720;48.274;7.796;2022-09-21T10:37:45;6.03;;;1.90;;
7359;SDS011;3720;48.274;7.796;2022-09-21T10:40:23;3.33;;;1.67;;
7359;SDS011;3720;48.274;7.796;2022-09-21T10:42:57;3.15;;;1.63;;
7359;SDS011;3720;48.274;7.796;2022-09-21T10:45:31;4.55;;;1.55;;
7359;SDS011;3720;48.274;7.796;2022-09-21T10:48:06;5.68;;;1.90;;
7359;SDS011;3720;48.274;7.796;2022-09-21T10:50:42;6.90;;;2.00;;
7359;SDS011;3720;48.274;7.796;2022-09-21T10:53:18;4.95;;;1.77;;
7359;SDS011;3720;48.274;7.796;2022-09-21T10:55:56;4.60;;;1.70;;
7359;SDS011;3720;48.274;7.796;2022-09-21T10:58:31;3.95;;;1.85;;
7359;SDS011;3720;48.274;7.796;2022-09-21T11:01:11;3.00;;;1.70;;
7359;SDS011;3720;48.274;7.796;2022-09-21T11:03:49;4.00;;;1.80;;
7359;SDS011;3720;48.274;7.796;2022-09-21T11:06:28;4.75;;;1.52;;
7359;SDS011;3720;48.274;7.796;2022-09-21T11:09:05;3.22;;;1.60;;
7359;SDS011;3720;48.274;7.796;2022-09-21T11:11:42;3.67;;;1.40;;
7359;SDS011;3720;48.274;7.796;2022-09-21T11:14:25;3.40;;;1.42;;
7359;SDS011;3720;48.274;7.796;2022-09-21T11:17:06;5.22;;;1.60;;
7359;SDS011;3720;48.274;7.796;2022-09-21T11:19:43;3.38;;;1.40;;
7359;SDS011;3720;48.274;7.796;2022-09-21T11:22:23;3.50;;;1.30;;
7359;SDS011;3720;48.274;7.796;2022-09-21T11:25:05;2.72;;;1.02;;
7359;SDS011;3720;48.274;7.796;2022-09-21T11:27:49;3.03;;;1.10;;
7359;SDS011;3720;48.274;7.796;2022-09-21T11:30:25;2.88;;;1.30;;
7359;SDS011;3720;48.274;7.796;2022-09-21T11:33:07;1.52;;;1.15;;
7359;SDS011;3720;48.274;7.796;2022-09-21T11:35:52;1.88;;;0.77;;
7359;SDS011;3720;48.274;7.796;2022-09-21T11:38:35;1.77;;;0.73;;
7359;SDS011;3720;48.274;7.796;2022-09-21T11:41:17;1.88;;;0.70;;
7359;SDS011;3720;48.274;7.796;2022-09-21T11:44:13;3.92;;;0.80;;
7359;SDS011;3720;48.274;7.796;2022-09-21T11:46:56;1.58;;;0.70;;
7359;SDS011;3720;48.274;7.796;2022-09-21T11:49:42;1.90;;;0.63;;
7359;SDS011;3720;48.274;7.796;2022-09-21T11:52:37;1.73;;;0.70;;
7359;SDS011;3720;48.274;7.796;2022-09-21T11:58:29;2.75;;;0.70;;
7359;SDS011;3720;48.274;7.796;2022-09-21T12:01:11;2.03;;;0.70;;
7359;SDS011;3720;48.274;7.796;2022-09-21T12:03:59;1.48;;;0.68;;
7359;SDS011;3720;48.274;7.796;2022-09-21T12:06:47;2.45;;;0.77;;
7359;SDS011;3720;48.274;7.796;2022-09-21T12:09:51;2.08;;;0.90;;
7359;SDS011;3720;48.274;7.796;2022-09-21T12:12:33;2.10;;;1.13;;
7359;SDS011;3720;48.274;7.796;2022-09-21T12:15:10;3.38;;;1.30;;
7359;SDS011;3720;48.274;7.796;2022-09-21T12:17:51;2.15;;;0.98;;
7359;SDS011;3720;48.274;7.796;2022-09-21T12:20:30;1.95;;;0.80;;
7359;SDS011;3720;48.274;7.796;2022-09-21T12:23:07;1.60;;;0.70;;
7359;SDS011;3720;48.274;7.796;2022-09-21T12:25:46;1.48;;;0.60;;
7359;SDS011;3720;48.274;7.796;2022-09-21T12:28:24;1.50;;;0.60;;
7359;SDS011;3720;48.274;7.796;2022-09-21T12:31:02;2.53;;;0.80;;
7359;SDS011;3720;48.274;7.796;2022-09-21T12:33:38;1.15;;;0.52;;
7359;SDS011;3720;48.274;7.796;2022-09-21T12:36:17;2.72;;;0.80;;
7359;SDS011;3720;48.274;7.796;2022-09-21T12:38:53;1.10;;;0.70;;
7359;SDS011;3720;48.274;7.796;2022-09-21T12:41:32;0.90;;;0.60;;
7359;SDS011;3720;48.274;7.796;2022-09-21T12:44:15;1.67;;;0.60;;
7359;SDS011;3720;48.274;7.796;2022-09-21T12:46:54;3.38;;;0.52;;
7359;SDS011;3720;48.274;7.796;2022-09-21T12:49:40;1.25;;;0.63;;
7359;SDS011;3720;48.274;7.796;2022-09-21T12:54:52;1.35;;;0.60;;
7359;SDS011;3720;48.274;7.796;2022-09-21T12:57:32;2.55;;;0.60;;
7359;SDS011;3720;48.274;7.796;2022-09-21T13:00:26;2.78;;;0.50;;
7359;SDS011;3720;48.274;7.796;2022-09-21T13:03:07;0.93;;;0.60;;
7359;SDS011;3720;48.274;7.796;2022-09-21T13:05:49;0.95;;;0.55;;
7359;SDS011;3720;48.274;7.796;2022-09-21T13:08:37;2.42;;;0.60;;
7359;SDS011;3720;48.274;7.796;2022-09-21T13:11:11;1.33;;;0.52;;
7359;SDS011;3720;48.274;7.796;2022-09-21T13:13:50;1.90;;;0.45;;
7359;SDS011;3720;48.274;7.796;2022-09-21T13:16:29;2.05;;;0.50;;
7359;SDS011;3720;48.274;7.796;2022-09-21T13:19:03;1.45;;;0.60;;
7359;SDS011;3720;48.274;7.796;2022-09-21T13:21:47;3.67;;;0.60;;
7359;SDS011;3720;48.274;7.796;2022-09-21T13:24:56;0.55;;;0.52;;
7359;SDS011;3720;48.274;7.796;2022-09-21T13:30:44;0.80;;;0.55;;
7359;SDS011;3720;48.274;7.796;2022-09-21T13:39:03;1.63;;;0.55;;
7359;SDS011;3720;48.274;7.796;2022-09-21T13:41:46;1.52;;;0.40;;
7359;SDS011;3720;48.274;7.796;2022-09-21T13:44:19;2.05;;;0.90;;
7359;SDS011;3720;48.274;7.796;2022-09-21T13:47:06;0.85;;;0.50;;
7359;SDS011;3720;48.274;7.796;2022-09-21T13:49:42;1.05;;;0.60;;
7359;SDS011;3720;48.274;7.796;2022-09-21T13:52:24;1.63;;;0.50;;
7359;SDS011;3720;48.274;7.796;2022-09-21T13:55:02;1.45;;;0.50;;
7359;SDS011;3720;48.274;7.796;2022-09-21T13:57:38;0.85;;;0.60;;
7359;SDS011;3720;48.274;7.796;2022-09-21T14:00:31;1.05;;;0.43;;
7359;SDS011;3720;48.274;7.796;2022-09-21T14:03:16;0.30;;;0.30;;
7359;SDS011;3720;48.274;7.796;2022-09-21T14:05:59;1.20;;;0.40;;
7359;SDS011;3720;48.274;7.796;2022-09-21T14:08:36;0.93;;;0.50;;
7359;SDS011;3720;48.274;7.796;2022-09-21T14:11:14;1.20;;;0.60;;
7359;SDS011;3720;48.274;7.796;2022-09-21T14:13:58;2.00;;;0.40;;
7359;SDS011;3720;48.274;7.796;2022-09-21T14:16:50;1.13;;;0.50;;
7359;SDS011;3720;48.274;7.796;2022-09-21T14:22:38;0.60;;;0.50;;
7359;SDS011;3720;48.274;7.796;2022-09-21T14:25:15;0.77;;;0.40;;
7359;SDS011;3720;48.274;7.796;2022-09-21T14:28:10;4.47;;;0.60;;
7359;SDS011;3720;48.274;7.796;2022-09-21T14:30:51;1.20;;;0.50;;
7359;SDS011;3720;48.274;7.796;2022-09-21T14:33:31;0.75;;;0.57;;
7359;SDS011;3720;48.274;7.796;2022-09-21T14:36:11;1.73;;;0.60;;
7359;SDS011;3720;48.274;7.796;2022-09-21T14:38:50;3.33;;;0.50;;
7359;SDS011;3720;48.274;7.796;2022-09-21T14:41:29;0.70;;;0.45;;
7359;SDS011;3720;48.274;7.796;2022-09-21T14:44:03;1.65;;;0.60;;
7359;SDS011;3720;48.274;7.796;2022-09-21T14:46:42;3.25;;;0.57;;
7359;SDS011;3720;48.274;7.796;2022-09-21T14:49:35;1.30;;;0.50;;
7359;SDS011;3720;48.274;7.796;2022-09-21T14:52:17;2.10;;;0.60;;
7359;SDS011;3720;48.274;7.796;2022-09-21T14:55:03;5.68;;;0.55;;
7359;SDS011;3720;48.274;7.796;2022-09-21T15:00:50;0.70;;;0.50;;
7359;SDS011;3720;48.274;7.796;2022-09-21T15:03:34;1.33;;;0.68;;
7359;SDS011;3720;48.274;7.796;2022-09-21T15:06:20;2.75;;;0.57;;
7359;SDS011;3720;48.274;7.796;2022-09-21T15:09:26;1.02;;;0.50;;
7359;SDS011;3720;48.274;7.796;2022-09-21T15:12:36;0.77;;;0.50;;
7359;SDS011;3720;48.274;7.796;2022-09-21T15:15:25;0.70;;;0.40;;
7359;SDS011;3720;48.274;7.796;2022-09-21T15:18:14;2.10;;;0.50;;
7359;SDS011;3720;48.274;7.796;2022-09-21T15:20:56;1.35;;;0.60;;
7359;SDS011;3720;48.274;7.796;2022-09-21T15:23:31;0.98;;;0.40;;
7359;SDS011;3720;48.274;7.796;2022-09-21T15:26:06;1.58;;;0.40;;
7359;SDS011;3720;48.274;7.796;2022-09-21T15:28:45;1.48;;;0.50;;
7359;SDS011;3720;48.274;7.796;2022-09-21T15:31:19;1.00;;;0.60;;
7359;SDS011;3720;48.274;7.796;2022-09-21T15:33:51;0.85;;;0.40;;
7359;SDS011;3720;48.274;7.796;2022-09-21T15:36:24;1.00;;;0.40;;
7359;SDS011;3720;48.274;7.796;2022-09-21T15:39:00;3.47;;;0.50;;
7359;SDS011;3720;48.274;7.796;2022-09-21T15:41:39;0.95;;;0.43;;
7359;SDS011;3720;48.274;7.796;2022-09-21T15:44:16;1.40;;;0.50;;
7359;SDS011;3720;48.274;7.796;2022-09-21T15:46:53;0.75;;;0.40;;
7359;SDS011;3720;48.274;7.796;2022-09-21T15:49:30;1.45;;;0.50;;
7359;SDS011;3720;48.274;7.796;2022-09-21T15:52:04;1.20;;;0.60;;
7359;SDS011;3720;48.274;7.796;2022-09-21T15:54:42;1.35;;;0.70;;
7359;SDS011;3720;48.274;7.796;2022-09-21T15:57:22;0.52;;;0.50;;
7359;SDS011;3720;48.274;7.796;2022-09-21T16:00:03;1.83;;;0.43;;
7359;SDS011;3720;48.274;7.796;2022-09-21T16:02:37;1.75;;;0.70;;
7359;SDS011;3720;48.274;7.796;2022-09-21T16:05:11;1.02;;;0.57;;
7359;SDS011;3720;48.274;7.796;2022-09-21T16:07:45;1.08;;;0.60;;
7359;SDS011;3720;48.274;7.796;2022-09-21T16:10:33;2.53;;;0.50;;
7359;SDS011;3720;48.274;7.796;2022-09-21T16:13:09;0.98;;;0.45;;
7359;SDS011;3720;48.274;7.796;2022-09-21T16:16:05;0.77;;;0.55;;
7359;SDS011;3720;48.274;7.796;2022-09-21T16:18:39;3.15;;;1.90;;
7359;SDS011;3720;48.274;7.796;2022-09-21T16:23:52;1.75;;;0.50;;
7359;SDS011;3720;48.274;7.796;2022-09-21T16:26:27;1.17;;;0.70;;
7359;SDS011;3720;48.274;7.796;2022-09-21T16:29:17;0.60;;;0.60;;
7359;SDS011;3720;48.274;7.796;2022-09-21T16:31:56;1.95;;;0.70;;
7359;SDS011;3720;48.274;7.796;2022-09-21T16:37:54;1.77;;;0.57;;
7359;SDS011;3720;48.274;7.796;2022-09-21T16:40:28;1.85;;;0.77;;
7359;SDS011;3720;48.274;7.796;2022-09-21T16:43:00;1.35;;;0.68;;
7359;SDS011;3720;48.274;7.796;2022-09-21T16:45:34;2.45;;;1.30;;
7359;SDS011;3720;48.274;7.796;2022-09-21T16:48:08;2.22;;;0.90;;
7359;SDS011;3720;48.274;7.796;2022-09-21T16:50:42;1.15;;;0.80;;
7359;SDS011;3720;48.274;7.796;2022-09-21T16:53:13;1.25;;;0.85;;
7359;SDS011;3720;48.274;7.796;2022-09-21T16:55:45;1.67;;;0.82;;
7359;SDS011;3720;48.274;7.796;2022-09-21T16:58:17;1.70;;;0.80;;
7359;SDS011;3720;48.274;7.796;2022-09-21T17:00:51;1.50;;;0.90;;
7359;SDS011;3720;48.274;7.796;2022-09-21T17:03:25;1.70;;;0.60;;